Time;durP1;ratioP1;P1;durP2;ratioP2;P2;SDS_P1;SDS_P2;PMS_P1;PMS_P2;Temp;Humidity;BMP_temperature;BMP_pressure;BME280_temperature;BME280_humidity;BME280_pressure;Samples;Min_cycle;Max_cycle;Signal;HPM_P1;HPM_P2
2022/01/25 00:08:27;;;;;;;20.30;14.43;;;0.80;99.90;;;;;;5069843;28;20196;-70
2022/01/25 00:27:37;;;;;;;27.27;15.88;;;0.70;99.90;;;;;;5078127;28;20224;-72
2022/01/25 00:30:25;;;;;;;23.25;15.25;;;0.70;99.90;;;;;;5078096;28;20254;-72
2022/01/25 00:32:46;;;;;;;28.23;16.25;;;0.70;99.90;;;;;;5077700;28;20619;-73
2022/01/25 00:35:13;;;;;;;23.60;16.58;;;0.60;99.90;;;;;;5077261;28;20199;-71
2022/01/25 00:37:39;;;;;;;20.80;14.50;;;0.50;99.90;;;;;;5078191;28;20200;-71
2022/01/25 00:40:06;;;;;;;19.55;14.43;;;0.50;99.90;;;;;;5079200;28;20286;-71
2022/01/25 00:42:32;;;;;;;25.98;15.63;;;0.40;99.90;;;;;;5079309;28;20200;-71
2022/01/25 00:44:59;;;;;;;22.60;15.07;;;0.40;99.90;;;;;;5079310;28;20199;-71
2022/01/25 00:47:26;;;;;;;22.27;14.32;;;0.30;99.90;;;;;;5079131;28;20281;-71
2022/01/25 00:49:53;;;;;;;24.98;15.05;;;0.30;99.90;;;;;;5078975;28;20203;-71
2022/01/25 00:54:48;;;;;;;20.77;14.65;;;0.30;99.90;;;;;;5079050;28;20287;-71
2022/01/25 00:57:15;;;;;;;19.77;14.15;;;0.30;99.90;;;;;;5078425;28;20204;-71
2022/01/25 00:59:42;;;;;;;21.48;13.43;;;0.30;99.90;;;;;;5078031;28;20208;-71
2022/01/25 01:02:11;;;;;;;18.55;13.38;;;0.20;99.90;;;;;;5077080;28;20273;-71
2022/01/25 01:04:41;;;;;;;19.83;14.10;;;0.20;99.90;;;;;;5077462;28;20200;-71
2022/01/25 01:07:11;;;;;;;19.95;14.48;;;0.20;99.90;;;;;;5075522;28;20227;-71
2022/01/25 01:09:40;;;;;;;23.65;15.70;;;0.20;99.90;;;;;;5077280;28;20294;-71
2022/01/25 01:12:15;;;;;;;20.67;15.32;;;0.20;99.90;;;;;;5076194;28;20192;-71
2022/01/25 01:15:04;;;;;;;22.33;15.05;;;0.20;99.90;;;;;;5077808;28;20257;-71
2022/01/25 01:31:13;;;;;;;23.10;14.45;;;0.00;99.90;;;;;;5077676;28;20271;-71
2022/01/25 01:34:41;;;;;;;23.52;14.98;;;0.00;99.90;;;;;;5076440;28;20184;-72
2022/01/25 01:44:21;;;;;;;21.92;14.85;;;-0.20;99.90;;;;;;5076467;28;20721;-72
2022/01/25 01:47:07;;;;;;;19.75;13.93;;;-0.30;99.90;;;;;;5076514;28;20223;-72
2022/01/25 01:49:42;;;;;;;17.65;13.60;;;-0.30;99.90;;;;;;5075007;28;20648;-71
2022/01/25 01:52:10;;;;;;;20.52;13.15;;;-0.30;99.90;;;;;;5076972;28;20745;-71
2022/01/25 01:54:37;;;;;;;21.48;15.02;;;-0.30;99.90;;;;;;5075682;28;20663;-71
2022/01/25 01:57:07;;;;;;;19.77;13.23;;;-0.30;99.90;;;;;;5075325;28;20219;-71
2022/01/25 01:59:34;;;;;;;22.13;14.55;;;-0.30;99.90;;;;;;5075433;28;20184;-71
2022/01/25 02:02:01;;;;;;;21.92;15.32;;;-0.30;99.90;;;;;;5075141;28;20195;-70
2022/01/25 02:04:28;;;;;;;20.90;14.88;;;-0.30;99.90;;;;;;5075322;28;20200;-70
2022/01/25 02:06:54;;;;;;;21.55;14.60;;;-0.30;99.90;;;;;;5074895;28;20235;-71
2022/01/25 02:09:21;;;;;;;22.58;14.57;;;-0.30;99.90;;;;;;5074486;28;20556;-71
2022/01/25 02:11:47;;;;;;;22.58;13.73;;;-0.30;99.90;;;;;;5073951;28;20264;-70
2022/01/25 02:14:15;;;;;;;19.88;13.80;;;-0.30;99.90;;;;;;5075343;28;20200;-70
2022/01/25 02:24:41;;;;;;;21.75;14.48;;;-0.40;99.90;;;;;;5074462;28;20187;-71
2022/01/25 02:27:08;;;;;;;21.17;15.32;;;-0.40;99.90;;;;;;5075169;28;20216;-71
2022/01/25 02:29:35;;;;;;;27.40;15.95;;;-0.30;99.90;;;;;;5073961;28;20200;-71
2022/01/25 02:32:03;;;;;;;22.98;14.73;;;-0.30;99.90;;;;;;5075143;28;20196;-70
2022/01/25 02:34:29;;;;;;;26.88;16.67;;;-0.40;99.90;;;;;;5075820;28;20340;-71
2022/01/25 02:36:59;;;;;;;26.98;16.48;;;-0.30;99.90;;;;;;5075323;28;20204;-70
2022/01/25 02:39:25;;;;;;;25.70;16.80;;;-0.40;99.90;;;;;;5073633;28;20204;-71
2022/01/25 02:41:52;;;;;;;25.85;15.80;;;-0.40;99.90;;;;;;5075182;28;20283;-71
2022/01/25 02:44:25;;;;;;;29.25;15.75;;;-0.40;99.90;;;;;;5074755;28;20568;-71
2022/01/25 02:49:33;;;;;;;26.10;16.00;;;-0.50;99.90;;;;;;5073597;28;20204;-70
2022/01/25 02:52:00;;;;;;;20.48;14.25;;;-0.50;99.90;;;;;;5073365;28;20228;-71
2022/01/25 02:54:27;;;;;;;20.95;13.85;;;-0.60;99.90;;;;;;5072308;28;20203;-70
2022/01/25 02:56:54;;;;;;;20.50;14.27;;;-0.70;99.90;;;;;;5074563;28;20208;-71
2022/01/25 02:59:21;;;;;;;26.08;14.05;;;-0.70;99.90;;;;;;5077554;28;20256;-71
2022/01/25 03:01:49;;;;;;;26.17;16.17;;;-0.90;99.90;;;;;;5077643;28;20208;-70
2022/01/25 03:04:18;;;;;;;21.20;13.55;;;-0.90;99.90;;;;;;5078261;28;20559;-70
2022/01/25 03:06:45;;;;;;;24.33;15.50;;;-1.00;99.90;;;;;;5077968;28;20224;-71
2022/01/25 03:09:13;;;;;;;23.92;14.85;;;-1.10;99.90;;;;;;5077923;28;20245;-70
2022/01/25 03:11:39;;;;;;;26.27;17.55;;;-1.00;99.90;;;;;;5079173;28;20583;-70
2022/01/25 03:14:09;;;;;;;34.13;20.02;;;-1.00;99.90;;;;;;5078861;28;20253;-70
2022/01/25 03:17:05;;;;;;;28.20;18.50;;;-0.90;99.90;;;;;;5078577;28;20722;-71
2022/01/25 03:22:04;;;;;;;28.73;17.60;;;-1.00;99.90;;;;;;5078720;28;20208;-70
2022/01/25 03:24:31;;;;;;;30.45;17.10;;;-1.00;99.90;;;;;;5078486;28;20204;-70
2022/01/25 03:26:57;;;;;;;27.77;16.73;;;-1.00;99.90;;;;;;5078092;28;20216;-70
2022/01/25 03:29:24;;;;;;;25.80;16.92;;;-1.00;99.90;;;;;;5078307;28;20670;-71
2022/01/25 03:31:50;;;;;;;25.20;15.55;;;-1.00;99.90;;;;;;5078322;28;20207;-71
2022/01/25 03:34:17;;;;;;;29.10;18.88;;;-0.90;99.90;;;;;;5078309;28;20196;-70
2022/01/25 03:36:44;;;;;;;27.55;15.98;;;-1.00;99.90;;;;;;5076919;28;20200;-70
2022/01/25 03:39:10;;;;;;;25.02;16.83;;;-1.00;99.90;;;;;;5077967;28;20204;-70
2022/01/25 03:41:36;;;;;;;30.02;17.02;;;-1.00;99.90;;;;;;5077692;28;20555;-71
2022/01/25 03:44:03;;;;;;;29.50;17.50;;;-1.10;99.90;;;;;;5077848;28;20204;-71
2022/01/25 03:51:46;;;;;;;29.33;16.00;;;-1.00;99.90;;;;;;5077658;28;20216;-70
2022/01/25 03:54:13;;;;;;;28.30;16.65;;;-1.00;99.90;;;;;;5076426;28;20195;-70
2022/01/25 03:56:40;;;;;;;23.75;16.38;;;-1.00;99.90;;;;;;5077371;28;20200;-71
2022/01/25 03:59:06;;;;;;;27.83;16.55;;;-1.10;99.90;;;;;;5077014;28;20728;-70
2022/01/25 04:01:35;;;;;;;25.85;15.77;;;-1.00;99.90;;;;;;5077843;28;20219;-71
2022/01/25 04:04:07;;;;;;;24.05;16.58;;;-1.10;99.90;;;;;;5075776;28;20247;-71
2022/01/25 04:06:35;;;;;;;23.83;15.98;;;-1.10;99.90;;;;;;5077837;28;20705;-71
2022/01/25 04:09:05;;;;;;;24.55;15.50;;;-1.10;99.90;;;;;;5076357;28;20207;-70
2022/01/25 04:11:31;;;;;;;26.45;15.50;;;-1.10;99.90;;;;;;5077753;28;20219;-70
2022/01/25 04:13:58;;;;;;;26.50;16.42;;;-1.10;99.90;;;;;;5077603;28;20281;-70
2022/01/25 04:16:33;;;;;;;21.55;14.68;;;-1.10;99.90;;;;;;5077504;28;20571;-70
2022/01/25 04:19:07;;;;;;;26.30;17.13;;;-1.20;99.90;;;;;;5077771;28;20659;-70
2022/01/25 04:26:46;;;;;;;23.90;15.73;;;-1.30;99.90;;;;;;5077371;28;20744;-70
2022/01/25 04:29:14;;;;;;;22.45;15.10;;;-1.40;99.90;;;;;;5077307;28;20207;-70
2022/01/25 04:31:41;;;;;;;27.25;17.30;;;-1.50;99.90;;;;;;5077124;28;20196;-70
2022/01/25 04:50:07;;;;;;;24.65;16.33;;;-1.70;99.90;;;;;;5075679;28;20184;-70
2022/01/25 04:52:44;;;;;;;26.10;15.20;;;-1.70;99.90;;;;;;5075228;28;20239;-71
2022/01/25 04:55:20;;;;;;;33.30;16.55;;;-1.70;99.90;;;;;;5075373;28;20257;-71
2022/01/25 04:58:02;;;;;;;26.20;16.73;;;-1.70;99.90;;;;;;5076278;28;20576;-71
2022/01/25 05:00:30;;;;;;;28.02;16.63;;;-1.70;99.90;;;;;;5075132;28;20636;-70
2022/01/25 05:03:07;;;;;;;25.08;16.42;;;-1.80;99.90;;;;;;5075689;28;20211;-71
2022/01/25 05:05:39;;;;;;;28.63;16.38;;;-1.80;99.90;;;;;;5075347;28;20180;-70
2022/01/25 05:08:18;;;;;;;31.17;16.85;;;-1.90;99.90;;;;;;5073756;28;20220;-70
2022/01/25 05:10:59;;;;;;;27.30;16.23;;;-1.90;99.90;;;;;;5075324;28;20217;-70
2022/01/25 05:18:45;;;;;;;26.08;16.63;;;-1.80;99.90;;;;;;5077239;28;20206;-70
2022/01/25 05:23:57;;;;;;;26.35;16.75;;;-1.70;99.90;;;;;;5076736;28;20188;-70
2022/01/25 05:26:25;;;;;;;37.08;16.52;;;-1.70;99.90;;;;;;5076753;28;20704;-70
2022/01/25 05:28:51;;;;;;;27.00;15.40;;;-1.70;99.90;;;;;;5076702;28;20245;-70
2022/01/25 05:31:18;;;;;;;29.58;16.40;;;-1.70;99.90;;;;;;5076984;28;20660;-70
2022/01/25 05:33:45;;;;;;;25.85;15.65;;;-1.70;99.90;;;;;;5075242;28;20203;-70
2022/01/25 05:36:13;;;;;;;27.45;14.73;;;-1.70;99.90;;;;;;5076504;28;20199;-70
2022/01/25 05:38:39;;;;;;;27.35;16.75;;;-1.90;99.90;;;;;;5076157;28;20218;-70
2022/01/25 05:41:06;;;;;;;27.27;15.85;;;-1.90;99.90;;;;;;5075635;28;20214;-70
2022/01/25 05:48:37;;;;;;;29.33;15.38;;;-1.80;99.90;;;;;;5075103;28;20190;-70
2022/01/25 05:51:03;;;;;;;20.88;13.70;;;-1.80;99.90;;;;;;5076043;28;20246;-70
2022/01/25 05:53:31;;;;;;;21.67;14.35;;;-1.80;99.90;;;;;;5074216;28;20228;-70
2022/01/25 05:55:58;;;;;;;23.83;16.00;;;-1.80;99.90;;;;;;5076460;28;20200;-70
2022/01/25 05:58:25;;;;;;;25.92;16.75;;;-1.90;99.90;;;;;;5076324;28;20212;-70
2022/01/25 06:00:51;;;;;;;24.10;15.70;;;-1.90;99.90;;;;;;5076150;28;20547;-70
2022/01/25 06:03:18;;;;;;;23.20;15.07;;;-2.00;99.90;;;;;;5076881;28;20675;-71
2022/01/25 06:05:45;;;;;;;21.65;13.90;;;-1.90;99.90;;;;;;5076147;28;20287;-71
2022/01/25 06:08:12;;;;;;;30.70;16.08;;;-1.90;99.90;;;;;;5075651;28;20227;-71
2022/01/25 06:10:38;;;;;;;24.38;15.30;;;-1.90;99.90;;;;;;5074998;28;20207;-71
2022/01/25 06:13:05;;;;;;;23.50;15.45;;;-1.80;99.90;;;;;;5073459;28;20680;-71
2022/01/25 06:15:31;;;;;;;21.60;14.38;;;-1.80;99.90;;;;;;5075358;28;20200;-71
2022/01/25 06:17:58;;;;;;;21.70;13.23;;;-1.70;99.90;;;;;;5075127;28;20208;-71
2022/01/25 06:20:24;;;;;;;26.60;16.85;;;-1.60;99.90;;;;;;5073599;28;20253;-70
2022/01/25 06:22:51;;;;;;;25.05;16.10;;;-1.70;99.90;;;;;;5074813;28;20207;-70
2022/01/25 06:25:17;;;;;;;23.15;16.58;;;-1.70;99.90;;;;;;5075177;28;20679;-70
2022/01/25 06:27:44;;;;;;;26.05;15.23;;;-1.60;99.90;;;;;;5079125;28;20223;-71
2022/01/25 06:30:14;;;;;;;24.75;17.25;;;-1.60;99.90;;;;;;5075222;28;20200;-71
2022/01/25 06:32:41;;;;;;;25.00;15.70;;;-1.60;99.90;;;;;;5075074;28;20196;-71
2022/01/25 06:35:08;;;;;;;22.55;14.38;;;-1.60;99.90;;;;;;5074614;28;20608;-71
2022/01/25 06:37:35;;;;;;;23.95;13.57;;;-1.60;99.90;;;;;;5075695;28;20294;-71
2022/01/25 06:40:02;;;;;;;23.55;14.75;;;-1.50;99.90;;;;;;5076191;28;20264;-73
2022/01/25 06:42:31;;;;;;;25.95;17.15;;;-1.50;99.90;;;;;;5074093;28;20735;-72
2022/01/25 06:45:04;;;;;;;21.05;14.93;;;-1.40;99.90;;;;;;5075710;28;20705;-72
2022/01/25 06:47:30;;;;;;;19.67;13.55;;;-1.40;99.90;;;;;;5075818;28;20208;-72
2022/01/25 06:49:57;;;;;;;21.45;14.55;;;-1.40;99.90;;;;;;5074807;28;20208;-72
2022/01/25 06:52:24;;;;;;;32.03;13.70;;;-1.40;99.90;;;;;;5074063;28;20232;-71
2022/01/25 06:54:50;;;;;;;20.85;14.43;;;-1.40;99.90;;;;;;5073608;28;20200;-70
2022/01/25 06:57:18;;;;;;;25.20;13.82;;;-1.40;99.90;;;;;;5072350;28;20253;-70
2022/01/25 06:59:44;;;;;;;23.05;14.55;;;-1.50;99.90;;;;;;5073513;28;20282;-71
2022/01/25 07:02:12;;;;;;;21.38;14.48;;;-1.50;99.90;;;;;;5073155;28;20199;-71
2022/01/25 07:04:39;;;;;;;19.63;13.68;;;-1.60;99.90;;;;;;5073684;28;20547;-70
2022/01/25 07:07:06;;;;;;;23.65;14.60;;;-1.60;99.90;;;;;;5073538;28;20276;-70
2022/01/25 07:09:32;;;;;;;25.23;13.98;;;-1.70;99.90;;;;;;5074472;28;20202;-70
2022/01/25 07:12:00;;;;;;;21.92;14.30;;;-1.60;99.90;;;;;;5074096;28;20197;-71
2022/01/25 07:14:26;;;;;;;21.35;13.73;;;-1.60;99.90;;;;;;5073318;28;20206;-72
2022/01/25 07:16:54;;;;;;;25.30;14.00;;;-1.60;99.90;;;;;;5074170;28;20671;-70
2022/01/25 07:19:21;;;;;;;20.63;14.10;;;-1.50;99.90;;;;;;5073852;28;20207;-69
2022/01/25 07:21:47;;;;;;;21.42;14.75;;;-1.60;99.90;;;;;;5073001;28;20208;-69
2022/01/25 07:24:14;;;;;;;20.35;13.20;;;-1.50;99.90;;;;;;5074921;28;20211;-70
2022/01/25 07:26:40;;;;;;;22.15;13.38;;;-1.50;99.90;;;;;;5073133;28;20546;-70
2022/01/25 07:29:07;;;;;;;24.15;14.05;;;-1.40;99.90;;;;;;5073478;28;20279;-69
2022/01/25 07:31:33;;;;;;;30.50;15.57;;;-1.30;99.90;;;;;;5075238;28;20200;-69
2022/01/25 07:34:00;;;;;;;33.63;19.52;;;-1.30;99.90;;;;;;5074506;28;20568;-69
2022/01/25 07:36:26;;;;;;;33.72;20.27;;;-1.20;99.90;;;;;;5074513;28;20654;-69
2022/01/25 07:38:53;;;;;;;29.25;18.73;;;-1.10;99.90;;;;;;5074200;28;20214;-69
2022/01/25 07:41:21;;;;;;;30.83;18.85;;;-0.90;99.90;;;;;;5074244;28;20204;-69
2022/01/25 07:43:47;;;;;;;31.15;19.33;;;-0.80;99.90;;;;;;5075869;28;20671;-69
2022/01/25 07:46:15;;;;;;;36.17;19.25;;;-0.70;99.90;;;;;;5078776;28;20208;-69
2022/01/25 07:48:42;;;;;;;30.60;19.35;;;-0.70;99.90;;;;;;5079710;28;20212;-69
2022/01/25 07:51:08;;;;;;;39.92;18.98;;;-0.70;99.90;;;;;;5079701;28;20199;-70
2022/01/25 07:53:37;;;;;;;26.73;17.17;;;-0.60;99.90;;;;;;5078523;28;20285;-70
2022/01/25 07:56:03;;;;;;;28.70;18.58;;;-0.60;99.90;;;;;;5076894;28;20204;-70
2022/01/25 07:58:30;;;;;;;30.92;19.88;;;-0.50;99.90;;;;;;5078805;28;20207;-70
2022/01/25 08:00:56;;;;;;;23.77;16.95;;;-0.40;99.90;;;;;;5079617;28;20207;-70
2022/01/25 08:03:23;;;;;;;28.58;16.52;;;-0.40;99.90;;;;;;5077527;28;20663;-70
2022/01/25 08:05:50;;;;;;;27.45;16.45;;;-0.30;99.90;;;;;;5077821;28;20269;-70
2022/01/25 08:08:17;;;;;;;27.77;15.55;;;-0.40;99.90;;;;;;5079330;28;20273;-70
2022/01/25 08:10:44;;;;;;;27.90;16.10;;;-0.30;99.90;;;;;;5079167;28;20196;-70
2022/01/25 08:13:10;;;;;;;22.05;15.65;;;-0.20;99.90;;;;;;5077735;28;20200;-71
2022/01/25 08:15:37;;;;;;;23.02;16.10;;;-0.10;99.90;;;;;;5077124;28;20537;-70
2022/01/25 08:18:03;;;;;;;23.33;14.23;;;0.00;99.90;;;;;;5076129;28;20204;-70
2022/01/25 08:20:30;;;;;;;28.38;15.90;;;0.10;99.90;;;;;;5075680;28;20208;-70
2022/01/25 08:22:56;;;;;;;26.13;17.83;;;0.10;99.90;;;;;;5075777;28;20625;-70
2022/01/25 08:25:22;;;;;;;20.58;15.15;;;0.30;99.90;;;;;;5077173;28;20214;-70
2022/01/25 08:27:49;;;;;;;28.50;17.63;;;0.30;99.90;;;;;;5077355;28;20220;-70
2022/01/25 08:30:16;;;;;;;24.75;15.98;;;0.30;99.90;;;;;;5077555;28;20191;-70
2022/01/25 08:32:43;;;;;;;32.80;18.27;;;0.20;99.90;;;;;;5077349;28;20276;-70
2022/01/25 08:35:10;;;;;;;21.45;15.82;;;0.30;99.90;;;;;;5078338;28;20204;-70
2022/01/25 08:37:37;;;;;;;27.63;17.05;;;0.20;99.90;;;;;;5076288;28;20210;-69
2022/01/25 08:40:08;;;;;;;23.92;16.52;;;0.20;99.90;;;;;;5077865;28;20207;-70
2022/01/25 08:42:35;;;;;;;24.90;16.42;;;0.20;99.90;;;;;;5076296;28;20283;-70
2022/01/25 08:45:04;;;;;;;28.55;17.50;;;0.10;99.90;;;;;;5075811;28;20219;-70
2022/01/25 08:47:31;;;;;;;29.33;18.55;;;0.30;99.90;;;;;;5075710;28;20220;-70
2022/01/25 08:49:57;;;;;;;25.25;17.83;;;0.40;99.90;;;;;;5076111;28;20192;-70
2022/01/25 08:52:24;;;;;;;28.40;18.15;;;0.40;99.90;;;;;;5074152;28;20239;-70
2022/01/25 08:54:50;;;;;;;25.80;18.45;;;0.50;99.90;;;;;;5075486;28;20253;-70
2022/01/25 08:57:17;;;;;;;32.15;18.05;;;0.60;99.90;;;;;;5076568;28;20241;-70
2022/01/25 08:59:43;;;;;;;29.13;17.38;;;0.70;99.90;;;;;;5076799;28;20215;-70
2022/01/25 09:02:10;;;;;;;23.65;16.38;;;0.80;99.90;;;;;;5076177;28;20200;-70
2022/01/25 09:04:36;;;;;;;30.20;18.98;;;0.70;99.90;;;;;;5075519;28;20210;-70
2022/01/25 09:07:03;;;;;;;34.72;17.75;;;0.60;99.90;;;;;;5076754;28;20224;-70
2022/01/25 09:09:30;;;;;;;27.65;18.10;;;0.60;99.90;;;;;;5076632;28;20201;-70
2022/01/25 09:11:57;;;;;;;25.92;18.80;;;0.80;99.90;;;;;;5076659;28;20207;-70
2022/01/25 09:14:24;;;;;;;27.95;18.25;;;1.00;99.90;;;;;;5076744;28;20207;-70
2022/01/25 09:16:50;;;;;;;33.45;17.58;;;1.00;99.90;;;;;;5075670;28;20200;-70
2022/01/25 09:19:17;;;;;;;32.28;18.65;;;1.00;99.90;;;;;;5076890;28;20207;-70
2022/01/25 09:21:43;;;;;;;33.33;18.58;;;1.10;99.90;;;;;;5076603;28;20218;-70
2022/01/25 09:24:10;;;;;;;28.83;19.80;;;1.10;99.90;;;;;;5075483;28;20212;-70
2022/01/25 09:26:37;;;;;;;32.72;21.42;;;1.30;99.90;;;;;;5076196;28;20203;-70
2022/01/25 09:29:04;;;;;;;37.60;21.33;;;1.30;99.90;;;;;;5076600;28;20227;-70
2022/01/25 09:31:31;;;;;;;39.00;23.50;;;1.20;99.90;;;;;;5076725;28;20195;-70
2022/01/25 09:33:58;;;;;;;28.83;21.15;;;1.20;99.90;;;;;;5076045;28;20526;-71
2022/01/25 09:36:25;;;;;;;41.00;24.75;;;1.20;99.90;;;;;;5075455;28;20204;-71
2022/01/25 09:38:53;;;;;;;40.10;23.00;;;1.20;99.90;;;;;;5075510;28;20211;-70
2022/01/25 09:41:20;;;;;;;39.70;22.95;;;1.30;99.90;;;;;;5075570;28;20202;-70
2022/01/25 09:43:49;;;;;;;41.88;25.42;;;1.40;99.90;;;;;;5075631;28;20225;-70
2022/01/25 09:46:15;;;;;;;38.42;24.33;;;1.30;99.90;;;;;;5074741;28;20204;-70
2022/01/25 09:48:43;;;;;;;42.55;24.35;;;1.40;99.90;;;;;;5074133;28;20216;-70
2022/01/25 09:51:10;;;;;;;40.67;24.27;;;1.30;99.90;;;;;;5074861;28;20226;-70
2022/01/25 09:53:39;;;;;;;52.05;26.00;;;1.30;99.90;;;;;;5074298;28;20204;-69
2022/01/25 09:56:05;;;;;;;51.67;28.38;;;1.40;99.90;;;;;;5073923;28;20203;-71
2022/01/25 09:58:32;;;;;;;49.03;26.85;;;1.40;99.90;;;;;;5074127;28;20669;-71
2022/01/25 10:01:01;;;;;;;50.15;27.63;;;1.50;99.90;;;;;;5074095;28;20207;-70
2022/01/25 10:03:34;;;;;;;56.42;27.20;;;1.50;99.90;;;;;;5076192;28;20207;-70
2022/01/25 10:06:02;;;;;;;59.80;29.80;;;1.50;99.90;;;;;;5076647;28;20220;-71
2022/01/25 10:08:37;;;;;;;48.63;27.98;;;1.70;99.90;;;;;;5076245;28;20273;-70
2022/01/25 10:11:09;;;;;;;48.40;29.70;;;1.60;99.90;;;;;;5074887;28;20266;-70
2022/01/25 10:13:48;;;;;;;49.95;26.10;;;1.60;99.90;;;;;;5077038;28;20203;-71
2022/01/25 10:16:21;;;;;;;57.38;27.48;;;1.60;99.90;;;;;;5076092;28;20180;-71
2022/01/25 10:18:58;;;;;;;56.42;29.33;;;1.30;99.90;;;;;;5074650;28;20659;-70
2022/01/25 10:21:29;;;;;;;62.22;30.63;;;1.30;99.90;;;;;;5074361;28;20195;-70
2022/01/25 10:24:15;;;;;;;61.58;30.45;;;1.50;99.90;;;;;;5074363;28;20188;-70
2022/01/25 10:26:43;;;;;;;54.03;28.88;;;1.50;99.90;;;;;;5073883;28;20192;-70
2022/01/25 10:29:19;;;;;;;60.33;28.98;;;1.70;99.90;;;;;;5073933;28;20269;-70
2022/01/25 10:31:49;;;;;;;57.20;29.05;;;1.70;99.90;;;;;;5075259;28;20248;-70
2022/01/25 10:34:21;;;;;;;63.50;30.35;;;1.60;99.90;;;;;;5074924;28;20199;-70
2022/01/25 10:36:50;;;;;;;69.20;33.08;;;1.40;99.90;;;;;;5075682;28;20187;-70
2022/01/25 10:39:30;;;;;;;68.38;31.10;;;1.40;99.90;;;;;;5075521;28;20269;-70
2022/01/25 10:42:11;;;;;;;65.88;31.23;;;1.30;99.90;;;;;;5075191;28;20208;-69
2022/01/25 10:45:03;;;;;;;65.88;30.45;;;1.40;99.90;;;;;;5075379;28;20210;-69
2022/01/25 10:47:49;;;;;;;61.10;30.38;;;1.30;99.90;;;;;;5075432;28;20276;-71
2022/01/25 10:50:25;;;;;;;83.97;34.60;;;1.30;99.90;;;;;;5072173;28;20796;-70
2022/01/25 10:53:05;;;;;;;83.03;35.42;;;1.30;99.90;;;;;;5073505;28;20224;-72
2022/01/25 10:55:43;;;;;;;61.55;31.05;;;1.40;99.90;;;;;;5074045;28;20203;-70
2022/01/25 10:58:10;;;;;;;66.18;31.98;;;1.30;99.90;;;;;;5073908;28;20199;-70
2022/01/25 11:00:43;;;;;;;68.80;30.25;;;1.40;99.90;;;;;;5074210;28;20210;-70
2022/01/25 11:03:10;;;;;;;73.07;32.05;;;1.40;99.90;;;;;;5073424;28;20207;-70
2022/01/25 11:05:41;;;;;;;65.93;30.20;;;1.40;99.90;;;;;;5071661;28;20207;-70
2022/01/25 11:08:17;;;;;;;76.97;31.23;;;1.20;99.90;;;;;;5073986;28;20219;-70
2022/01/25 11:10:49;;;;;;;62.55;33.13;;;1.10;99.90;;;;;;5071908;28;20253;-69
2022/01/25 11:15:58;;;;;;;59.67;28.00;;;1.30;99.90;;;;;;5073438;28;20180;-69
2022/01/25 11:18:30;;;;;;;65.28;30.05;;;1.50;99.90;;;;;;5075077;28;20196;-69
2022/01/25 11:20:59;;;;;;;71.50;30.20;;;1.40;99.90;;;;;;5077315;28;20226;-69
2022/01/25 11:23:27;;;;;;;63.55;32.03;;;1.50;99.90;;;;;;5077609;28;20261;-70
2022/01/25 11:25:55;;;;;;;71.28;31.75;;;1.50;99.90;;;;;;5077163;28;20212;-70
2022/01/25 11:28:22;;;;;;;68.82;31.25;;;1.50;99.90;;;;;;5076882;28;20220;-69
2022/01/25 11:30:50;;;;;;;72.10;32.28;;;1.70;99.90;;;;;;5076670;28;20204;-70
2022/01/25 11:33:20;;;;;;;74.57;32.60;;;1.90;99.90;;;;;;5077040;28;20204;-69
2022/01/25 11:35:49;;;;;;;70.57;29.02;;;1.80;99.90;;;;;;5077244;28;20258;-70
2022/01/25 11:38:25;;;;;;;62.33;28.13;;;1.70;99.90;;;;;;5076578;28;20200;-71
2022/01/25 11:40:55;;;;;;;72.60;32.00;;;1.60;99.90;;;;;;5076572;28;20188;-70
2022/01/25 11:43:21;;;;;;;84.50;32.75;;;1.80;99.90;;;;;;5077288;28;20207;-69
2022/01/25 11:45:49;;;;;;;72.40;32.13;;;1.70;99.90;;;;;;5077966;28;20199;-70
2022/01/25 11:48:39;;;;;;;105.20;30.27;;;1.60;99.90;;;;;;5077526;28;20611;-70
2022/01/25 11:51:17;;;;;;;76.47;29.52;;;1.60;99.90;;;;;;5077775;28;20191;-70
2022/01/25 11:53:47;;;;;;;65.88;32.83;;;1.80;99.90;;;;;;5077006;28;20747;-71
2022/01/25 11:56:15;;;;;;;69.82;32.03;;;2.00;99.90;;;;;;5077803;28;20553;-70
2022/01/25 11:58:42;;;;;;;64.30;30.05;;;2.00;99.90;;;;;;5076428;28;20204;-70
2022/01/25 12:01:21;;;;;;;73.72;31.20;;;1.90;99.90;;;;;;5076822;28;20199;-70
2022/01/25 12:03:51;;;;;;;72.60;33.25;;;1.80;99.90;;;;;;5079134;28;20211;-70
2022/01/25 12:06:22;;;;;;;62.00;30.58;;;2.00;99.90;;;;;;5078003;28;20593;-70
2022/01/25 12:11:27;;;;;;;55.85;28.58;;;1.80;99.90;;;;;;5079449;28;20215;-71
2022/01/25 12:14:23;;;;;;;66.95;28.38;;;1.70;99.90;;;;;;5078098;28;20196;-70
2022/01/25 12:17:03;;;;;;;53.55;24.98;;;1.70;99.90;;;;;;5078500;28;20336;-70
2022/01/25 12:19:47;;;;;;;43.30;22.65;;;1.70;99.90;;;;;;5078011;28;20549;-71
2022/01/25 12:22:35;;;;;;;44.08;23.27;;;1.70;99.90;;;;;;5075775;28;20689;-70
2022/01/25 12:27:56;;;;;;;44.33;25.40;;;1.80;99.90;;;;;;5076833;28;20195;-71
2022/01/25 12:30:25;;;;;;;47.92;25.80;;;2.00;99.90;;;;;;5075457;28;20196;-71
2022/01/25 12:33:02;;;;;;;50.22;26.58;;;2.00;99.90;;;;;;5076941;28;20226;-71
2022/01/25 12:36:02;;;;;;;55.53;25.77;;;1.90;99.90;;;;;;5076827;28;20268;-71
2022/01/25 12:38:37;;;;;;;45.33;22.80;;;2.10;99.90;;;;;;5076390;28;20257;-71
2022/01/25 12:41:18;;;;;;;43.25;24.25;;;1.80;99.90;;;;;;5076388;28;20184;-71
2022/01/25 12:43:47;;;;;;;49.83;28.40;;;1.90;99.90;;;;;;5075805;28;20192;-71
2022/01/25 12:46:18;;;;;;;49.78;26.13;;;2.10;99.90;;;;;;5074584;28;20212;-72
2022/01/25 12:48:48;;;;;;;49.30;25.95;;;2.20;99.90;;;;;;5075527;28;20219;-71
2022/01/25 12:51:20;;;;;;;56.10;28.05;;;2.30;99.90;;;;;;5074819;28;20211;-71
2022/01/25 12:53:49;;;;;;;57.03;28.05;;;2.30;99.90;;;;;;5074197;28;20206;-71
2022/01/25 12:56:26;;;;;;;55.65;29.98;;;2.30;99.90;;;;;;5077701;28;20196;-72
2022/01/25 12:58:58;;;;;;;49.70;27.02;;;2.30;99.90;;;;;;5074939;28;20620;-72
2022/01/25 13:01:26;;;;;;;57.17;29.45;;;2.40;99.90;;;;;;5075005;28;20192;-71
2022/01/25 13:03:59;;;;;;;54.85;28.30;;;2.40;99.90;;;;;;5074655;28;20672;-72
2022/01/25 13:06:29;;;;;;;54.17;30.23;;;2.50;99.90;;;;;;5075015;28;20230;-71
2022/01/25 13:09:20;;;;;;;46.15;26.17;;;2.50;99.90;;;;;;5074855;28;20293;-71
2022/01/25 13:17:03;;;;;;;53.60;26.88;;;2.50;99.90;;;;;;5076580;28;20206;-71
2022/01/25 13:19:44;;;;;;;51.70;29.58;;;2.40;99.90;;;;;;5077021;28;20207;-72
2022/01/25 13:22:17;;;;;;;61.28;33.60;;;2.30;99.90;;;;;;5076120;28;20211;-72
2022/01/25 13:28:01;;;;;;;57.58;28.70;;;2.50;99.90;;;;;;5072361;28;20204;-72
2022/01/25 13:30:45;;;;;;;53.92;26.67;;;2.50;99.90;;;;;;5076392;28;20208;-71
2022/01/25 13:33:19;;;;;;;50.25;26.08;;;2.30;99.90;;;;;;5074649;28;20196;-72
2022/01/25 13:35:51;;;;;;;74.35;28.80;;;2.20;99.90;;;;;;5074337;28;20658;-72
2022/01/25 13:38:21;;;;;;;51.08;27.60;;;2.20;99.90;;;;;;5074578;28;20204;-72
2022/01/25 13:41:05;;;;;;;54.85;28.63;;;2.20;99.90;;;;;;5073909;28;20265;-72
2022/01/25 13:46:30;;;;;;;52.95;26.50;;;2.10;99.90;;;;;;5074238;28;20188;-71
2022/01/25 13:49:00;;;;;;;56.75;29.90;;;2.10;99.90;;;;;;5074120;28;20216;-71
2022/01/25 13:51:30;;;;;;;52.55;29.48;;;2.10;99.90;;;;;;5072301;28;20571;-71
2022/01/25 13:54:01;;;;;;;56.88;28.75;;;2.10;99.90;;;;;;5076206;28;20553;-71
2022/01/25 13:56:30;;;;;;;55.47;26.80;;;2.10;99.90;;;;;;5076079;28;20210;-71
2022/01/25 13:58:57;;;;;;;60.28;29.27;;;2.20;99.90;;;;;;5076212;28;20208;-70
2022/01/25 14:01:27;;;;;;;54.13;26.90;;;2.10;99.90;;;;;;5075657;28;20290;-71
2022/01/25 14:03:59;;;;;;;54.00;26.98;;;2.20;99.90;;;;;;5075659;28;20553;-72
2022/01/25 14:06:25;;;;;;;53.75;27.90;;;2.10;99.90;;;;;;5076726;28;20224;-72
2022/01/25 14:08:59;;;;;;;59.78;28.80;;;2.10;99.90;;;;;;5075299;28;20234;-72
2022/01/25 14:22:42;;;;;;;61.05;27.00;;;1.80;99.90;;;;;;5075389;28;20213;-71
2022/01/25 14:25:09;;;;;;;58.85;29.63;;;1.80;99.90;;;;;;5075608;28;20253;-71
2022/01/25 14:28:00;;;;;;;62.67;31.02;;;2.00;99.90;;;;;;5075704;28;20207;-72
2022/01/25 14:30:31;;;;;;;63.20;29.60;;;2.10;99.90;;;;;;5075266;28;20261;-72
2022/01/25 14:33:11;;;;;;;65.75;31.27;;;2.10;99.90;;;;;;5074031;28;20184;-71
2022/01/25 14:35:47;;;;;;;50.65;26.10;;;2.10;99.90;;;;;;5072665;28;20272;-72
2022/01/25 14:38:18;;;;;;;49.50;25.83;;;2.10;99.90;;;;;;5074081;28;20188;-71
2022/01/25 14:40:57;;;;;;;48.45;26.52;;;1.90;99.90;;;;;;5074149;28;20177;-72
2022/01/25 14:43:26;;;;;;;50.50;25.92;;;1.90;99.90;;;;;;5073238;28;20678;-71
2022/01/25 14:46:06;;;;;;;49.20;24.98;;;2.00;99.90;;;;;;5074784;28;20199;-72
2022/01/25 14:48:36;;;;;;;52.78;28.52;;;2.00;99.90;;;;;;5073886;28;20569;-72
2022/01/25 14:51:05;;;;;;;46.35;27.27;;;2.00;99.90;;;;;;5074505;28;20211;-72
2022/01/25 14:53:32;;;;;;;63.25;27.27;;;2.10;99.90;;;;;;5076722;28;20227;-72
2022/01/25 14:56:01;;;;;;;54.35;26.45;;;1.90;99.90;;;;;;5078268;28;20203;-71
2022/01/25 15:01:13;;;;;;;51.40;25.83;;;1.70;99.90;;;;;;5078371;28;20188;-72